Map

Track Data

SID SEASON NUMBER BASIN SUBBASIN NAME ISO_TIME NATURE LAT LON WMO_WIND WMO_PRES WMO_AGENCY TRACK_TYPE DIST2LAND LANDFALL IFLAG USA_AGENCY USA_ATCF_ID USA_LAT USA_LON USA_RECORD USA_STATUS USA_WIND USA_PRES USA_SSHS USA_R34_NE USA_R34_SE USA_R34_SW USA_R34_NW USA_R50_NE USA_R50_SE USA_R50_SW USA_R50_NW USA_R64_NE USA_R64_SE USA_R64_SW USA_R64_NW USA_POCI USA_ROCI USA_RMW USA_EYE TOKYO_LAT TOKYO_LON TOKYO_GRADE TOKYO_WIND TOKYO_PRES TOKYO_R50_DIR TOKYO_R50_LONG TOKYO_R50_SHORT TOKYO_R30_DIR TOKYO_R30_LONG TOKYO_R30_SHORT TOKYO_LAND CMA_LAT CMA_LON CMA_CAT CMA_WIND CMA_PRES HKO_LAT HKO_LON HKO_CAT HKO_WIND HKO_PRES NEWDELHI_LAT NEWDELHI_LON NEWDELHI_GRADE NEWDELHI_WIND NEWDELHI_PRES NEWDELHI_CI NEWDELHI_DP NEWDELHI_POCI REUNION_LAT REUNION_LON REUNION_TYPE REUNION_WIND REUNION_PRES REUNION_TNUM REUNION_CI REUNION_RMW REUNION_R34_NE REUNION_R34_SE REUNION_R34_SW REUNION_R34_NW REUNION_R50_NE REUNION_R50_SE REUNION_R50_SW REUNION_R50_NW REUNION_R64_NE REUNION_R64_SE REUNION_R64_SW REUNION_R64_NW BOM_LAT BOM_LON BOM_TYPE BOM_WIND BOM_PRES BOM_TNUM BOM_CI BOM_RMW BOM_R34_NE BOM_R34_SE BOM_R34_SW BOM_R34_NW BOM_R50_NE BOM_R50_SE BOM_R50_SW BOM_R50_NW BOM_R64_NE BOM_R64_SE BOM_R64_SW BOM_R64_NW BOM_ROCI BOM_POCI BOM_EYE BOM_POS_METHOD BOM_PRES_METHOD NADI_LAT NADI_LON NADI_CAT NADI_WIND NADI_PRES WELLINGTON_LAT WELLINGTON_LON WELLINGTON_WIND WELLINGTON_PRES DS824_LAT DS824_LON DS824_STAGE DS824_WIND DS824_PRES TD9636_LAT TD9636_LON TD9636_STAGE TD9636_WIND TD9636_PRES TD9635_LAT TD9635_LON TD9635_WIND TD9635_PRES TD9635_ROCI NEUMANN_LAT NEUMANN_LON NEUMANN_CLASS NEUMANN_WIND NEUMANN_PRES MLC_LAT MLC_LON MLC_CLASS MLC_WIND MLC_PRES USA_GUST BOM_GUST BOM_GUST_PER REUNION_GUST REUNION_GUST_PER USA_SEAHGT USA_SEARAD_NE USA_SEARAD_SE USA_SEARAD_SW USA_SEARAD_NW STORM_SPEED STORM_DIR
1940247N15139 1940 58 WP MM NOT_NAMED 1940-09-02 12:00:00 NR 15.4000 138.800 main 1480 1480 __________O___ -1 15.4000 138.800 3 19 351
1940247N15139 1940 58 WP MM NOT_NAMED 1940-09-02 15:00:00 NR 16.3080 138.656 main 1494 1487 __________P___ -1 16.3080 138.656 3 18 349
1940247N15139 1940 58 WP MM NOT_NAMED 1940-09-02 18:00:00 NR 17.1430 138.460 main 1502 1496 __________P___ -1 17.1430 138.460 3 16 343
1940247N15139 1940 58 WP MM NOT_NAMED 1940-09-02 21:00:00 NR 17.8316 138.159 main 1500 1475 __________P___ -1 17.8316 138.159 3 14 328
1940247N15139 1940 58 WP MM NOT_NAMED 1940-09-03 00:00:00 NR 18.3000 137.700 main 1475 1429 __________O___ -1 18.3000 137.700 4 12 303
1940247N15139 1940 58 WP MM NOT_NAMED 1940-09-03 03:00:00 NR 18.5071 137.059 main 1429 1364 __________P___ -1 18.5071 137.059 4 13 280
1940247N15139 1940 58 WP MM NOT_NAMED 1940-09-03 06:00:00 NR 18.5431 136.311 main 1355 1292 __________P___ -1 18.5431 136.311 4 14 271
1940247N15139 1940 58 WP MM NOT_NAMED 1940-09-03 09:00:00 NR 18.5322 135.558 main 1292 1236 __________P___ -1 18.5322 135.558 4 13 272
1940247N15139 1940 58 WP MM NOT_NAMED 1940-09-03 12:00:00 NR 18.6000 134.900 main 1236 1204 __________O___ -1 18.6000 134.900 4 12 291
1940247N15139 1940 58 WP MM NOT_NAMED 1940-09-03 15:00:00 NR 18.9761 134.368 main 1209 1187 __________P___ -1 18.9761 134.368 4 12 313
1940247N15139 1940 58 WP MM NOT_NAMED 1940-09-03 18:00:00 NR 19.4411 133.953 main 1193 1186 __________P___ -1 19.4411 133.953 4 11 325
1940247N15139 1940 58 WP MM NOT_NAMED 1940-09-03 21:00:00 NR 19.9106 133.686 main 1195 1192 __________P___ -1 19.9106 133.686 4 9 339
1940247N15139 1940 58 WP MM NOT_NAMED 1940-09-04 00:00:00 NR 20.3000 133.600 main 1204 1204 __________O___ -1 20.3000 133.600 4 6 0
1940247N15139 1940 58 WP MM NOT_NAMED 1940-09-04 03:00:00 NR 20.5054 133.707 main 1210 1202 __________P___ -1 20.5054 133.707 4 5 49
1940247N15139 1940 58 WP MM NOT_NAMED 1940-09-04 06:00:00 NR 20.6200 133.989 main 1207 1202 __________P___ -1 20.6200 133.989 4 6 75
1940247N15139 1940 58 WP MM NOT_NAMED 1940-09-04 09:00:00 NR 20.6744 134.376 main 1208 1208 __________P___ -1 20.6744 134.376 4 8 84
1940247N15139 1940 58 WP MM NOT_NAMED 1940-09-04 12:00:00 NR 20.7000 134.800 main 1221 1221 __________O___ -1 20.7000 134.800 4 7 87
1940247N15139 1940 58 WP MM NOT_NAMED 1940-09-04 15:00:00 NR 20.7140 135.150 main 1235 1235 __________P___ -1 20.7140 135.150 4 7 89
1940247N15139 1940 58 WP MM NOT_NAMED 1940-09-04 18:00:00 NR 20.7124 135.521 main 1246 1246 __________P___ -1 20.7124 135.521 4 7 89
1940247N15139 1940 58 WP MM NOT_NAMED 1940-09-04 21:00:00 NR 20.7295 135.907 main 1262 1260 __________P___ -1 20.7295 135.907 4 7 83
1940247N15139 1940 58 WP MM NOT_NAMED 1940-09-05 00:00:00 NR 20.8000 136.300 main 1268 1267 __________O___ -1 20.8000 136.300 4 8 75
1940247N15139 1940 58 WP MM NOT_NAMED 1940-09-05 03:00:00 NR 20.9396 136.749 main 1276 1271 __________P___ -1 20.9396 136.749 4 9 68
1940247N15139 1940 58 WP MM NOT_NAMED 1940-09-05 06:00:00 NR 21.1383 137.196 main 1281 1271 __________P___ -1 21.1383 137.196 4 9 60
1940247N15139 1940 58 WP MM NOT_NAMED 1940-09-05 09:00:00 NR 21.3927 137.596 main 1273 1260 __________P___ -1 21.3927 137.596 4 9 49
1940247N15139 1940 58 WP MM NOT_NAMED 1940-09-05 12:00:00 NR 21.7000 137.900 main 1260 1236 __________O___ -1 21.7000 137.900 4 8 34
1940247N15139 1940 58 WP MM NOT_NAMED 1940-09-05 15:00:00 NR 22.0558 138.076 main 1232 1203 __________P___ -1 22.0558 138.076 4 8 17
1940247N15139 1940 58 WP MM NOT_NAMED 1940-09-05 18:00:00 NR 22.4494 138.144 main 1203 1166 __________P___ -1 22.4494 138.144 4 8 4
1940247N15139 1940 58 WP MM NOT_NAMED 1940-09-05 21:00:00 NR 22.8684 138.140 main 1156 1119 __________P___ -1 22.8684 138.140 4 9 358
1940247N15139 1940 58 WP MM NOT_NAMED 1940-09-06 00:00:00 NR 23.3000 138.100 main 1119 __________O___ -1 23.3000 138.100 4 9 355

Digital Typhoon Data and Search

About IBTrACS Database

This database is a web-friendly format of International Best Track Archive for Climate Stewardship (IBTrACS), a global best track data archive curated by NOAA dating back to 1842.

Updated: 2021-12-01